Time;durP1;ratioP1;P1;durP2;ratioP2;P2;SDS_P1;SDS_P2;PMS_P1;PMS_P2;Temp;Humidity;BMP_temperature;BMP_pressure;BME280_temperature;BME280_humidity;BME280_pressure;Samples;Min_cycle;Max_cycle;Signal;HPM_P1;HPM_P2
2023/01/28 00:01:06;;;;;;;;;;;;;;;27.25;25.63;99916.34;5078204;28;1168;-24
2023/01/28 00:03:31;;;;;;;;;;;;;;;27.37;25.53;99910.34;5078024;28;1229;-27
2023/01/28 00:06:03;;;;;;;;;;;;;;;27.44;25.31;99916.59;5077288;28;1056;-24
2023/01/28 00:08:29;;;;;;;;;;;;;;;27.48;25.63;99917.84;5078068;28;1150;-24
2023/01/28 00:10:57;;;;;;;;;;;;;;;27.36;25.19;99914.09;5059437;28;1138;-24
2023/01/28 00:13:22;;;;;;;;;;;;;;;25.56;27.84;99926.91;5077097;28;1906;-24
2023/01/28 00:15:53;;;;;;;;;;;;;;;26.61;26.66;99923.78;5077497;28;1142;-24
2023/01/28 00:18:19;;;;;;;;;;;;;;;26.46;26.49;99922.03;5076736;28;1124;-24
2023/01/28 00:20:54;;;;;;;;;;;;;;;25.41;28.29;99920.72;5077700;28;1146;-24
2023/01/28 00:23:19;;;;;;;;;;;;;;;26.17;27.25;99930.09;5077139;28;1127;-24
2023/01/28 00:25:44;;;;;;;;;;;;;;;27.57;25.29;99923.03;5077603;28;1157;-24
2023/01/28 00:28:10;;;;;;;;;;;;;;;27.37;25.63;99942.75;5077135;28;1119;-23
2023/01/28 00:30:35;;;;;;;;;;;;;;;28.14;24.56;99941.59;5077009;28;926;-24
2023/01/28 00:33:01;;;;;;;;;;;;;;;27.61;24.95;99922.41;5059082;28;2033;-23
2023/01/28 00:35:26;;;;;;;;;;;;;;;26.90;25.99;99935.31;5077166;28;1055;-24
2023/01/28 00:37:51;;;;;;;;;;;;;;;26.89;25.90;99925.56;5076910;28;1203;-26
2023/01/28 00:40:17;;;;;;;;;;;;;;;27.12;25.96;99938.75;5076392;28;1135;-24
2023/01/28 00:42:42;;;;;;;;;;;;;;;27.13;25.88;99939.56;5074594;28;1183;-25
2023/01/28 00:45:07;;;;;;;;;;;;;;;27.22;25.44;99932.97;5066179;28;1056;-24
2023/01/28 00:47:33;;;;;;;;;;;;;;;27.31;25.50;99940.88;5076164;28;1278;-25
2023/01/28 00:49:58;;;;;;;;;;;;;;;27.30;25.56;99934.63;5058973;28;1056;-24
2023/01/28 00:52:23;;;;;;;;;;;;;;;27.39;25.24;99940.69;5076735;28;1971;-24
2023/01/28 00:54:49;;;;;;;;;;;;;;;27.46;25.03;99951.50;5076918;28;961;-23
2023/01/28 00:57:14;;;;;;;;;;;;;;;27.56;24.89;99943.00;5076663;28;1064;-24
2023/01/28 00:59:39;;;;;;;;;;;;;;;25.88;27.15;99953.53;5076786;28;1055;-26
2023/01/28 01:02:11;;;;;;;;;;;;;;;25.42;27.93;99952.03;5077260;28;1028;-23
2023/01/28 01:04:36;;;;;;;;;;;;;;;27.72;24.84;99961.56;5076602;28;1082;-25
2023/01/28 01:07:01;;;;;;;;;;;;;;;25.73;27.14;99956.28;5075970;28;929;-25
2023/01/28 01:09:27;;;;;;;;;;;;;;;25.21;27.89;99959.03;5076626;28;1129;-25
2023/01/28 01:11:52;;;;;;;;;;;;;;;26.78;26.50;99953.94;5075922;28;1902;-26
2023/01/28 01:14:17;;;;;;;;;;;;;;;27.38;25.16;99961.44;5076584;28;1035;-24
2023/01/28 01:16:42;;;;;;;;;;;;;;;27.52;24.90;99964.19;5076411;28;1146;-24
2023/01/28 01:19:08;;;;;;;;;;;;;;;27.81;24.84;99970.25;5076223;28;840;-24
2023/01/28 01:21:33;;;;;;;;;;;;;;;26.94;25.94;99970.84;5076296;28;1067;-25
2023/01/28 01:23:58;;;;;;;;;;;;;;;26.96;25.91;99974.97;5076567;28;1087;-25
2023/01/28 01:26:26;;;;;;;;;;;;;;;26.85;26.09;99976.41;5076321;28;1108;-24
2023/01/28 01:28:51;;;;;;;;;;;;;;;26.87;25.98;99970.78;5076308;28;1082;-25
2023/01/28 01:31:17;;;;;;;;;;;;;;;27.02;25.49;99979.63;5075516;28;908;-25
2023/01/28 01:33:44;;;;;;;;;;;;;;;27.16;25.45;99976.13;5076176;28;1890;-24
2023/01/28 01:36:10;;;;;;;;;;;;;;;27.24;25.55;99987.56;5076287;28;1052;-26
2023/01/28 01:38:36;;;;;;;;;;;;;;;27.32;25.19;99980.34;5076196;28;1071;-24
2023/01/28 01:41:02;;;;;;;;;;;;;;;27.36;25.42;99987.81;5075643;28;1468;-24
2023/01/28 01:43:46;;;;;;;;;;;;;;;27.43;25.20;99990.53;5075939;28;1000;-24
2023/01/28 01:46:11;;;;;;;;;;;;;;;27.56;25.02;100005.94;5075433;28;1139;-26
2023/01/28 01:48:37;;;;;;;;;;;;;;;25.65;27.33;100000.38;5076071;28;1058;-25
2023/01/28 01:51:03;;;;;;;;;;;;;;;25.65;27.83;99994.13;5074975;28;1051;-25
2023/01/28 01:53:28;;;;;;;;;;;;;;;28.02;24.47;100000.00;5075547;28;1961;-24
2023/01/28 01:55:56;;;;;;;;;;;;;;;28.26;23.61;100017.47;5076150;28;1129;-24
2023/01/28 01:58:22;;;;;;;;;;;;;;;28.23;23.97;100005.22;5076550;28;1150;-27
2023/01/28 02:00:47;;;;;;;;;;;;;;;27.62;24.45;100007.00;5076456;28;1166;-25
2023/01/28 02:03:13;;;;;;;;;;;;;;;27.17;25.22;100007.50;5075867;28;1171;-24
2023/01/28 02:05:38;;;;;;;;;;;;;;;26.93;25.42;100013.16;5057420;28;1226;-26
2023/01/28 02:08:22;;;;;;;;;;;;;;;26.81;25.90;100002.09;5057992;28;1201;-23
2023/01/28 02:10:48;;;;;;;;;;;;;;;27.01;25.59;100014.84;5075687;28;1027;-24
2023/01/28 02:13:13;;;;;;;;;;;;;;;27.07;25.37;100022.22;5075927;28;1953;-25
2023/01/28 02:15:39;;;;;;;;;;;;;;;27.07;25.44;100026.75;5057920;28;1187;-25
2023/01/28 02:18:04;;;;;;;;;;;;;;;27.20;25.22;100026.00;5075817;28;1123;-24
2023/01/28 02:20:32;;;;;;;;;;;;;;;27.30;24.78;100029.16;5075509;28;1110;-24
2023/01/28 02:23:16;;;;;;;;;;;;;;;27.34;24.94;100033.09;5075826;28;1042;-24
2023/01/28 02:25:41;;;;;;;;;;;;;;;27.46;24.54;100025.25;5064765;28;1108;-24
2023/01/28 02:28:10;;;;;;;;;;;;;;;27.35;25.14;100036.63;5075937;28;1139;-24
2023/01/28 02:30:39;;;;;;;;;;;;;;;25.61;27.04;100035.91;5075235;28;1079;-24
2023/01/28 02:33:07;;;;;;;;;;;;;;;25.35;27.71;100037.25;5057420;28;1902;-24
2023/01/28 02:35:32;;;;;;;;;;;;;;;27.94;24.33;100047.00;5057765;28;1135;-25
2023/01/28 02:37:59;;;;;;;;;;;;;;;25.94;26.39;100043.53;5075178;28;1080;-25
2023/01/28 02:40:28;;;;;;;;;;;;;;;25.61;27.32;100052.06;5075847;28;1134;-26
2023/01/28 02:42:54;;;;;;;;;;;;;;;27.47;24.85;100064.75;5056980;28;1027;-25
2023/01/28 02:45:20;;;;;;;;;;;;;;;27.92;24.02;100068.84;5075422;28;1043;-26
2023/01/28 02:47:58;;;;;;;;;;;;;;;28.16;23.78;100065.75;5075112;28;1529;-25
2023/01/28 02:50:24;;;;;;;;;;;;;;;27.29;24.93;100072.56;5075721;28;1181;-25
2023/01/28 02:55:46;;;;;;;;;;;;;;;26.61;26.08;100080.22;5074950;28;1179;-24
2023/01/28 02:58:14;;;;;;;;;;;;;;;26.70;25.65;100083.59;5075438;28;1051;-24
2023/01/28 03:00:42;;;;;;;;;;;;;;;26.62;25.56;100079.19;5075157;28;1148;-25
2023/01/28 03:03:14;;;;;;;;;;;;;;;26.66;25.74;100075.06;5078022;28;1190;-23
2023/01/28 03:06:02;;;;;;;;;;;;;;;26.72;25.74;100085.09;5078815;28;1059;-24
2023/01/28 03:38:47;;;;;;;;;;;;;;;25.22;27.74;100092.63;5063258;28;1087;-24
2023/01/28 03:41:12;;;;;;;;;;;;;;;26.98;25.41;100094.38;5060512;28;1238;-25
2023/01/28 03:43:38;;;;;;;;;;;;;;;26.50;25.23;100097.75;5077973;28;833;-24
2023/01/28 03:46:05;;;;;;;;;;;;;;;25.43;27.15;100097.22;5077673;28;1128;-24
2023/01/28 03:48:30;;;;;;;;;;;;;;;26.04;26.42;100100.63;5078033;28;1174;-24
2023/01/28 03:50:55;;;;;;;;;;;;;;;27.31;24.67;100103.72;5077733;28;1071;-26
2023/01/28 03:53:21;;;;;;;;;;;;;;;27.18;24.70;100103.66;5077925;28;1901;-24
2023/01/28 03:55:47;;;;;;;;;;;;;;;27.05;25.21;100105.25;5077215;28;1083;-24
2023/01/28 03:58:12;;;;;;;;;;;;;;;26.38;25.73;100097.44;5078342;28;1074;-23
2023/01/28 04:00:40;;;;;;;;;;;;;;;26.28;25.77;100095.06;5077649;28;1071;-25
2023/01/28 04:03:14;;;;;;;;;;;;;;;26.20;25.99;100109.50;5077838;28;1214;-24
2023/01/28 04:05:42;;;;;;;;;;;;;;;26.36;25.61;100107.63;5078035;28;1043;-24
2023/01/28 04:08:07;;;;;;;;;;;;;;;26.43;25.50;100119.28;5077422;28;936;-23
2023/01/28 04:10:32;;;;;;;;;;;;;;;26.60;25.57;100117.16;5077158;28;1039;-25
2023/01/28 04:12:57;;;;;;;;;;;;;;;26.60;25.50;100119.00;5077251;28;1893;-27
2023/01/28 04:15:23;;;;;;;;;;;;;;;28.39;23.40;100134.88;5076229;28;2505;-24
2023/01/28 04:17:48;;;;;;;;;;;;;;;26.37;24.98;100126.31;5077538;28;1143;-24
2023/01/28 04:20:13;;;;;;;;;;;;;;;26.69;25.38;100136.75;5076594;28;1055;-23
2023/01/28 04:22:39;;;;;;;;;;;;;;;27.92;23.83;100135.56;5077455;28;1106;-25
2023/01/28 04:25:04;;;;;;;;;;;;;;;26.75;23.50;100137.81;5070177;28;1123;-27
2023/01/28 04:27:29;;;;;;;;;;;;;;;26.26;23.04;100135.69;5077247;28;1056;-27
2023/01/28 04:29:55;;;;;;;;;;;;;;;25.97;21.78;100142.03;5077238;28;1175;-26
2023/01/28 04:32:20;;;;;;;;;;;;;;;25.18;21.52;100145.13;5076164;28;1889;-27
2023/01/28 04:34:45;;;;;;;;;;;;;;;24.05;21.99;100138.44;5076378;28;1168;-27
2023/01/28 04:37:10;;;;;;;;;;;;;;;23.77;21.84;100129.03;5076539;28;1090;-27
2023/01/28 04:39:36;;;;;;;;;;;;;;;24.10;22.26;100128.00;5076081;28;1043;-29
2023/01/28 04:42:01;;;;;;;;;;;;;;;26.68;20.93;100142.31;5076875;28;1545;-29
2023/01/28 04:44:26;;;;;;;;;;;;;;;27.73;20.36;100154.22;5076508;28;929;-26
2023/01/28 04:46:52;;;;;;;;;;;;;;;28.06;20.92;100145.38;5076254;28;2513;-29
2023/01/28 04:49:17;;;;;;;;;;;;;;;26.30;23.58;100144.22;5076820;28;1038;-29
2023/01/28 04:51:42;;;;;;;;;;;;;;;25.99;24.25;100135.41;5076230;28;1004;-29
2023/01/28 04:54:07;;;;;;;;;;;;;;;27.97;21.46;100138.50;5063034;28;1906;-24
2023/01/28 04:56:33;;;;;;;;;;;;;;;28.32;20.99;100138.38;5076143;28;1042;-27
2023/01/28 04:58:58;;;;;;;;;;;;;;;28.43;20.81;100134.25;5061492;28;959;-27
2023/01/28 05:01:24;;;;;;;;;;;;;;;28.09;21.10;100141.44;5065334;28;1011;-28
2023/01/28 05:03:49;;;;;;;;;;;;;;;26.78;22.74;100129.31;5056484;28;1099;-25
2023/01/28 05:06:14;;;;;;;;;;;;;;;26.93;22.76;100136.47;5066154;28;1104;-25
2023/01/28 05:08:40;;;;;;;;;;;;;;;27.03;22.55;100134.28;5062066;28;1205;-26
2023/01/28 05:11:05;;;;;;;;;;;;;;;27.18;22.46;100134.19;5066605;28;1221;-29
2023/01/28 05:13:30;;;;;;;;;;;;;;;27.30;22.57;100128.22;5059276;28;1918;-27
2023/01/28 05:15:56;;;;;;;;;;;;;;;27.42;22.46;100153.66;5070076;28;1915;-22
2023/01/28 05:18:21;;;;;;;;;;;;;;;27.56;22.28;100145.63;5067696;28;1012;-25
2023/01/28 05:20:46;;;;;;;;;;;;;;;27.70;22.10;100158.16;5050963;28;1203;-26
2023/01/28 05:23:12;;;;;;;;;;;;;;;27.81;22.25;100155.94;5056054;28;1013;-26
2023/01/28 05:25:37;;;;;;;;;;;;;;;27.82;22.25;100160.28;5055117;28;983;-28
2023/01/28 05:28:02;;;;;;;;;;;;;;;27.99;22.18;100158.06;5064506;28;1112;-27
2023/01/28 05:30:27;;;;;;;;;;;;;;;28.08;22.08;100174.91;5074087;28;1044;-25
2023/01/28 05:32:56;;;;;;;;;;;;;;;28.09;22.14;100169.31;5055791;28;1945;-30
2023/01/28 05:35:21;;;;;;;;;;;;;;;28.17;22.16;100180.97;5055926;28;1082;-27
2023/01/28 05:37:47;;;;;;;;;;;;;;;28.19;21.79;100179.75;5064157;28;1417;-25
2023/01/28 05:40:12;;;;;;;;;;;;;;;28.18;22.02;100175.38;5061880;28;1099;-28
2023/01/28 05:42:37;;;;;;;;;;;;;;;28.31;21.83;100176.44;5067508;28;1140;-26
2023/01/28 05:45:03;;;;;;;;;;;;;;;28.36;21.57;100174.00;5056089;28;1844;-29
2023/01/28 05:47:28;;;;;;;;;;;;;;;28.52;21.65;100188.16;5063389;28;1151;-25
2023/01/28 05:49:53;;;;;;;;;;;;;;;28.44;21.82;100191.91;5073824;28;1103;-25
2023/01/28 05:52:19;;;;;;;;;;;;;;;28.51;21.51;100194.63;5063178;28;1905;-25
2023/01/28 05:54:44;;;;;;;;;;;;;;;28.49;21.48;100192.13;5062577;28;1556;-27
2023/01/28 05:57:09;;;;;;;;;;;;;;;28.47;21.71;100210.41;5061520;28;845;-29
2023/01/28 05:59:35;;;;;;;;;;;;;;;28.43;21.29;100196.47;5041490;28;1060;-26
2023/01/28 06:02:00;;;;;;;;;;;;;;;28.53;21.67;100209.59;5069232;28;1104;-26
2023/01/28 06:04:25;;;;;;;;;;;;;;;28.68;21.29;100206.69;5075829;28;1164;-26
2023/01/28 06:06:50;;;;;;;;;;;;;;;28.69;21.37;100221.91;5061947;28;1083;-27
2023/01/28 06:09:16;;;;;;;;;;;;;;;28.78;21.18;100227.13;5068129;28;965;-25
2023/01/28 06:11:41;;;;;;;;;;;;;;;28.84;21.35;100229.81;5069044;28;1100;-26
2023/01/28 06:14:06;;;;;;;;;;;;;;;28.89;21.38;100226.50;5074963;28;1905;-27
2023/01/28 06:16:32;;;;;;;;;;;;;;;28.91;21.20;100231.69;5062036;28;1867;-28
2023/01/28 06:18:57;;;;;;;;;;;;;;;29.00;21.07;100232.34;5068810;28;1089;-28
2023/01/28 06:21:22;;;;;;;;;;;;;;;29.05;20.78;100233.38;5068513;28;902;-25
2023/01/28 06:23:48;;;;;;;;;;;;;;;27.79;22.02;100229.09;5074853;28;1036;-27
2023/01/28 06:26:13;;;;;;;;;;;;;;;27.36;22.06;100224.66;5062434;28;1080;-26
2023/01/28 06:28:38;;;;;;;;;;;;;;;27.30;23.54;100231.69;5054942;28;1088;-24
2023/01/28 06:31:04;;;;;;;;;;;;;;;29.10;21.14;100238.19;5067963;28;1089;-27
2023/01/28 06:33:29;;;;;;;;;;;;;;;27.73;21.58;100232.59;5061447;28;1961;-26
2023/01/28 06:35:54;;;;;;;;;;;;;;;27.30;22.27;100244.34;5075080;28;1087;-27
2023/01/28 06:38:20;;;;;;;;;;;;;;;28.26;22.14;100247.34;5071804;28;1171;-28
2023/01/28 06:40:50;;;;;;;;;;;;;;;28.21;22.20;100250.69;5071696;28;1050;-26
2023/01/28 06:43:15;;;;;;;;;;;;;;;28.31;21.99;100252.19;5059146;28;1036;-25
2023/01/28 06:45:40;;;;;;;;;;;;;;;28.28;21.91;100253.41;5066239;28;1804;-25
2023/01/28 06:48:05;;;;;;;;;;;;;;;27.95;22.41;100254.09;5047713;28;1338;-27
2023/01/28 06:50:31;;;;;;;;;;;;;;;28.09;22.21;100255.00;5065710;28;1103;-26
2023/01/28 06:52:56;;;;;;;;;;;;;;;28.23;22.14;100243.19;5077777;28;1910;-27
2023/01/28 06:55:21;;;;;;;;;;;;;;;28.50;21.82;100255.16;5066195;28;1079;-28
2023/01/28 06:57:46;;;;;;;;;;;;;;;28.68;21.58;100257.28;5077152;28;1088;-25
2023/01/28 07:00:14;;;;;;;;;;;;;;;28.88;21.57;100253.78;5066552;28;1123;-27
2023/01/28 07:02:39;;;;;;;;;;;;;;;28.99;21.36;100257.75;5071604;28;1072;-26
2023/01/28 07:05:06;;;;;;;;;;;;;;;29.12;21.43;100251.50;5070630;28;988;-26
2023/01/28 07:07:32;;;;;;;;;;;;;;;29.17;21.43;100249.84;5065307;28;1135;-25
2023/01/28 07:09:57;;;;;;;;;;;;;;;28.41;22.05;100254.53;5065086;28;1060;-29
2023/01/28 07:12:22;;;;;;;;;;;;;;;28.78;21.78;100246.88;5077076;28;1902;-27
2023/01/28 07:14:48;;;;;;;;;;;;;;;29.90;20.48;100262.63;5065425;28;1059;-26
2023/01/28 07:17:13;;;;;;;;;;;;;;;29.46;20.96;100263.97;5047742;28;1959;-25
2023/01/28 07:19:38;;;;;;;;;;;;;;;29.60;20.37;100271.28;5078476;28;1060;-31
2023/01/28 07:22:04;;;;;;;;;;;;;;;29.04;20.92;100287.75;5072458;28;1075;-29
2023/01/28 07:24:29;;;;;;;;;;;;;;;28.60;21.37;100288.91;5057928;28;1090;-27
2023/01/28 07:26:54;;;;;;;;;;;;;;;28.66;21.52;100300.78;5076800;28;1095;-25
2023/01/28 07:29:20;;;;;;;;;;;;;;;28.79;21.36;100312.69;5066280;28;1182;-28
2023/01/28 07:31:45;;;;;;;;;;;;;;;28.95;21.06;100315.00;5058123;28;1121;-26
2023/01/28 07:34:11;;;;;;;;;;;;;;;29.04;21.04;100309.41;5069501;28;1952;-28
2023/01/28 07:36:36;;;;;;;;;;;;;;;29.11;21.01;100306.72;5077417;28;1024;-25
2023/01/28 07:39:02;;;;;;;;;;;;;;;29.24;20.85;100308.59;5078474;28;999;-27
2023/01/28 07:41:28;;;;;;;;;;;;;;;29.08;20.76;100310.66;5072650;28;1056;-27
2023/01/28 07:43:53;;;;;;;;;;;;;;;27.95;21.98;100317.13;5057594;28;1063;-27
2023/01/28 07:46:18;;;;;;;;;;;;;;;29.07;21.20;100320.69;5063124;28;1959;-30
2023/01/28 07:48:44;;;;;;;;;;;;;;;29.56;20.55;100314.22;5069099;28;1084;-27
2023/01/28 07:51:10;;;;;;;;;;;;;;;29.30;20.68;100310.47;5059793;28;1052;-26
2023/01/28 07:53:35;;;;;;;;;;;;;;;29.29;20.75;100314.22;5076461;28;1902;-28
2023/01/28 07:56:00;;;;;;;;;;;;;;;28.85;21.22;100319.97;5073190;28;1079;-26
2023/01/28 07:58:26;;;;;;;;;;;;;;;28.55;21.38;100313.03;5057183;28;893;-26
2023/01/28 08:00:54;;;;;;;;;;;;;;;27.68;22.78;100324.19;5075158;28;1325;-25
2023/01/28 08:03:19;;;;;;;;;;;;;;;28.23;21.80;100316.22;5065745;28;1182;-26
2023/01/28 08:05:45;;;;;;;;;;;;;;;28.34;21.98;100322.94;5070500;28;991;-26
2023/01/28 08:08:11;;;;;;;;;;;;;;;28.59;21.75;100316.19;5045999;28;1026;-26
2023/01/28 08:10:36;;;;;;;;;;;;;;;28.82;21.40;100328.50;5076374;28;889;-27
2023/01/28 08:13:02;;;;;;;;;;;;;;;28.56;21.62;100324.72;5051483;28;1879;-26
2023/01/28 08:15:27;;;;;;;;;;;;;;;28.53;21.64;100322.41;5072440;28;1800;-28
2023/01/28 08:17:53;;;;;;;;;;;;;;;28.60;21.26;100343.03;5068095;28;1186;-29
2023/01/28 08:20:18;;;;;;;;;;;;;;;27.67;22.87;100349.56;5063677;28;1036;-28
2023/01/28 08:22:43;;;;;;;;;;;;;;;28.97;21.46;100350.03;5066910;28;2400;-28
2023/01/28 08:25:08;;;;;;;;;;;;;;;29.01;20.94;100364.81;5042211;28;1079;-26
2023/01/28 08:27:34;;;;;;;;;;;;;;;28.96;21.40;100351.03;5056986;28;1098;-28
2023/01/28 08:29:59;;;;;;;;;;;;;;;29.01;21.19;100369.41;5070686;28;1051;-26
2023/01/28 08:32:24;;;;;;;;;;;;;;;28.69;21.23;100362.66;5057388;28;1894;-27
2023/01/28 08:34:50;;;;;;;;;;;;;;;28.90;21.41;100366.22;5057868;28;879;-29
2023/01/28 08:37:15;;;;;;;;;;;;;;;28.16;22.17;100360.50;5066504;28;1015;-28
2023/01/28 08:39:41;;;;;;;;;;;;;;;28.39;22.01;100381.03;5060070;28;1043;-26
2023/01/28 08:42:06;;;;;;;;;;;;;;;28.64;21.63;100378.66;5077383;28;1126;-28
2023/01/28 08:44:32;;;;;;;;;;;;;;;28.67;21.70;100375.53;5076816;28;1063;-26
2023/01/28 08:46:57;;;;;;;;;;;;;;;29.01;21.50;100382.94;5066475;28;1028;-27
2023/01/28 08:49:22;;;;;;;;;;;;;;;28.81;21.32;100365.56;5073189;28;1211;-28
2023/01/28 08:51:48;;;;;;;;;;;;;;;28.25;22.16;100367.41;5066975;28;1024;-26
2023/01/28 08:54:13;;;;;;;;;;;;;;;28.17;22.24;100371.13;5056813;28;1977;-28
2023/01/28 08:56:43;;;;;;;;;;;;;;;28.37;22.20;100367.72;5066969;28;1027;-28
2023/01/28 08:59:09;;;;;;;;;;;;;;;28.39;22.13;100370.22;5076490;28;1004;-26
2023/01/28 09:01:34;;;;;;;;;;;;;;;28.46;21.89;100379.22;5066370;28;1135;-28
2023/01/28 09:03:59;;;;;;;;;;;;;;;28.58;22.07;100376.72;5060214;28;1080;-29
2023/01/28 09:06:24;;;;;;;;;;;;;;;28.64;21.56;100369.69;5077290;28;1067;-28
2023/01/28 09:08:50;;;;;;;;;;;;;;;28.69;21.72;100370.75;5075678;28;1052;-27
2023/01/28 09:11:15;;;;;;;;;;;;;;;28.68;21.73;100360.13;5057125;28;976;-30
2023/01/28 09:13:40;;;;;;;;;;;;;;;28.81;21.66;100370.16;5073439;28;1985;-28
2023/01/28 09:16:06;;;;;;;;;;;;;;;28.82;21.61;100364.53;5067267;28;1123;-26
2023/01/28 09:18:31;;;;;;;;;;;;;;;28.90;21.50;100376.22;5069931;28;1059;-28
2023/01/28 09:20:56;;;;;;;;;;;;;;;28.01;22.46;100393.06;5066512;28;1171;-27
2023/01/28 09:23:22;;;;;;;;;;;;;;;27.12;23.78;100395.00;5062715;28;1110;-26
2023/01/28 09:25:47;;;;;;;;;;;;;;;29.26;21.07;100391.31;5066894;28;1159;-27
2023/01/28 09:28:12;;;;;;;;;;;;;;;29.42;20.96;100390.09;5059070;28;1057;-28
2023/01/28 09:30:38;;;;;;;;;;;;;;;29.82;20.51;100393.84;5067670;28;1202;-26
2023/01/28 09:33:03;;;;;;;;;;;;;;;29.94;20.23;100397.59;5069750;28;1898;-26
2023/01/28 09:35:29;;;;;;;;;;;;;;;28.69;21.65;100394.28;5065650;28;1155;-26
2023/01/28 09:37:57;;;;;;;;;;;;;;;28.58;21.71;100395.69;5060437;28;1115;-27
2023/01/28 09:40:31;;;;;;;;;;;;;;;28.72;21.60;100402.84;5070278;28;969;-27
2023/01/28 09:42:56;;;;;;;;;;;;;;;28.89;21.39;100404.34;5051839;28;1119;-26
2023/01/28 09:45:28;;;;;;;;;;;;;;;28.93;21.52;100400.16;5055921;28;1025;-28
2023/01/28 09:47:54;;;;;;;;;;;;;;;29.10;21.32;100411.50;5062885;28;1269;-28
2023/01/28 09:50:32;;;;;;;;;;;;;;;29.23;21.19;100405.25;5045006;28;1167;-28
2023/01/28 09:53:05;;;;;;;;;;;;;;;29.32;21.03;100404.06;5069757;28;1906;-28
2023/01/28 09:55:32;;;;;;;;;;;;;;;29.41;20.94;100406.56;5056468;28;1017;-27
2023/01/28 09:57:57;;;;;;;;;;;;;;;28.96;21.28;100406.00;5038348;28;1041;-25
2023/01/28 10:00:23;;;;;;;;;;;;;;;27.55;23.34;100408.69;5069349;28;1083;-25
2023/01/28 10:02:55;;;;;;;;;;;;;;;29.66;20.63;100406.78;5045300;28;1087;-29
2023/01/28 10:05:39;;;;;;;;;;;;;;;29.98;20.11;100398.00;5057075;28;1043;-27
2023/01/28 10:08:18;;;;;;;;;;;;;;;29.76;20.26;100392.00;5055971;28;1055;-25
2023/01/28 10:10:46;;;;;;;;;;;;;;;29.49;20.72;100387.38;5056844;28;1113;-28
2023/01/28 10:13:14;;;;;;;;;;;;;;;28.73;21.54;100382.84;5050236;28;1953;-25
2023/01/28 10:15:42;;;;;;;;;;;;;;;28.65;21.84;100382.16;5065698;28;1529;-28
2023/01/28 10:18:08;;;;;;;;;;;;;;;28.63;22.07;100374.25;5079758;28;1060;-27
2023/01/28 10:20:37;;;;;;;;;;;;;;;28.76;21.81;100378.06;5066508;28;1051;-28
2023/01/28 10:23:03;;;;;;;;;;;;;;;28.78;21.75;100376.00;5048459;28;1465;-26
2023/01/28 10:25:29;;;;;;;;;;;;;;;28.86;21.61;100381.22;5066119;28;1044;-28
2023/01/28 10:27:54;;;;;;;;;;;;;;;28.92;21.46;100372.28;5067136;28;1133;-28
2023/01/28 10:30:26;;;;;;;;;;;;;;;29.01;21.43;100380.25;5073301;28;1207;-28
2023/01/28 10:32:52;;;;;;;;;;;;;;;29.08;21.24;100368.38;5060216;28;1886;-26
2023/01/28 10:35:18;;;;;;;;;;;;;;;29.04;21.24;100377.97;5072233;28;864;-27
2023/01/28 10:37:43;;;;;;;;;;;;;;;29.16;21.27;100380.88;5059403;28;1069;-27
2023/01/28 10:40:12;;;;;;;;;;;;;;;28.27;21.85;100367.19;5059709;28;1016;-27
2023/01/28 10:42:37;;;;;;;;;;;;;;;27.24;23.52;100378.28;5061002;28;1056;-26
2023/01/28 10:45:15;;;;;;;;;;;;;;;28.89;21.68;100377.25;5079401;28;1115;-26
2023/01/28 10:47:43;;;;;;;;;;;;;;;28.08;22.08;100385.81;5076284;28;1043;-27
2023/01/28 10:50:19;;;;;;;;;;;;;;;27.54;22.49;100393.50;5041794;28;1055;-28
2023/01/28 10:52:54;;;;;;;;;;;;;;;28.84;21.35;100399.53;5054533;28;2205;-26
2023/01/28 10:55:19;;;;;;;;;;;;;;;28.93;21.46;100402.88;5059725;28;983;-29
2023/01/28 10:57:44;;;;;;;;;;;;;;;28.59;22.09;100402.78;5077511;28;1144;-31
2023/01/28 11:00:21;;;;;;;;;;;;;;;28.91;21.22;100404.97;5078968;28;1063;-29
2023/01/28 11:02:47;;;;;;;;;;;;;;;27.98;21.88;100405.09;5079192;28;1035;-29
2023/01/28 11:05:16;;;;;;;;;;;;;;;28.07;21.63;100405.78;5066325;28;1166;-30
2023/01/28 11:07:41;;;;;;;;;;;;;;;28.18;21.72;100407.94;5079156;28;1083;-28
2023/01/28 11:10:22;;;;;;;;;;;;;;;28.26;21.42;100396.09;5046955;28;1186;-26
2023/01/28 11:12:53;;;;;;;;;;;;;;;28.47;21.31;100405.22;5058845;28;1953;-27
2023/01/28 11:15:18;;;;;;;;;;;;;;;28.50;21.21;100404.81;5058941;28;1017;-27
2023/01/28 11:17:47;;;;;;;;;;;;;;;28.76;20.85;100405.13;5069145;28;1136;-31
2023/01/28 11:20:18;;;;;;;;;;;;;;;28.89;21.02;100393.50;5057744;28;1222;-29
2023/01/28 11:22:43;;;;;;;;;;;;;;;28.95;20.90;100407.06;5057867;28;1017;-28
2023/01/28 11:25:27;;;;;;;;;;;;;;;29.09;20.71;100415.25;5045069;28;1091;-28
2023/01/28 11:27:53;;;;;;;;;;;;;;;29.14;20.65;100414.63;5065371;28;1103;-28
2023/01/28 11:30:25;;;;;;;;;;;;;;;29.28;20.77;100420.94;5065262;28;1043;-28
2023/01/28 11:33:05;;;;;;;;;;;;;;;29.28;20.49;100427.16;5078348;28;1894;-28
2023/01/28 11:35:31;;;;;;;;;;;;;;;29.05;20.63;100417.53;5078264;28;896;-27
2023/01/28 11:37:57;;;;;;;;;;;;;;;27.73;22.56;100406.38;5065255;28;1028;-25
2023/01/28 11:40:23;;;;;;;;;;;;;;;29.08;21.16;100408.16;5069313;28;1015;-27
2023/01/28 11:42:51;;;;;;;;;;;;;;;29.59;20.59;100403.25;5058231;28;1036;-30
2023/01/28 11:45:18;;;;;;;;;;;;;;;29.53;20.56;100404.88;5058666;28;1122;-27
2023/01/28 11:47:47;;;;;;;;;;;;;;;29.29;20.76;100409.88;5062477;28;1295;-28
2023/01/28 11:50:24;;;;;;;;;;;;;;;28.93;21.24;100419.13;5078553;28;1111;-26
2023/01/28 11:52:52;;;;;;;;;;;;;;;28.44;21.55;100411.88;5041839;28;1898;-27
2023/01/28 11:55:24;;;;;;;;;;;;;;;27.59;22.95;100415.38;5070402;28;1108;-25
2023/01/28 11:58:02;;;;;;;;;;;;;;;28.46;21.86;100409.78;5078094;28;1083;-27
2023/01/28 12:00:37;;;;;;;;;;;;;;;28.80;21.49;100428.03;5046654;28;922;-26
2023/01/28 12:03:09;;;;;;;;;;;;;;;28.62;21.28;100426.72;5060417;28;1032;-27
2023/01/28 12:05:34;;;;;;;;;;;;;;;28.59;21.25;100429.84;5064371;28;1101;-29
2023/01/28 12:08:02;;;;;;;;;;;;;;;28.38;21.71;100437.00;5068401;28;1074;-29
2023/01/28 12:10:46;;;;;;;;;;;;;;;28.33;21.68;100440.31;5071372;28;1171;-27
2023/01/28 12:13:18;;;;;;;;;;;;;;;28.43;21.50;100439.09;5057939;28;1898;-26
2023/01/28 12:15:48;;;;;;;;;;;;;;;28.52;21.39;100440.63;5078072;28;1237;-26
2023/01/28 12:18:17;;;;;;;;;;;;;;;28.62;21.33;100439.41;5046249;28;1143;-26
2023/01/28 12:20:54;;;;;;;;;;;;;;;28.68;21.38;100438.59;5065449;28;1114;-27
2023/01/28 12:23:19;;;;;;;;;;;;;;;28.78;21.02;100439.06;5061973;28;1013;-28
2023/01/28 12:26:00;;;;;;;;;;;;;;;28.76;21.07;100449.25;5066607;28;1055;-28
2023/01/28 12:28:44;;;;;;;;;;;;;;;28.84;21.01;100448.25;5059876;28;1131;-30
2023/01/28 12:31:15;;;;;;;;;;;;;;;28.80;21.17;100447.81;5070850;28;1056;-27
2023/01/28 12:33:47;;;;;;;;;;;;;;;28.90;21.04;100444.75;5064929;28;1894;-26
2023/01/28 12:36:15;;;;;;;;;;;;;;;28.97;20.78;100444.78;5075195;28;884;-27
2023/01/28 12:38:47;;;;;;;;;;;;;;;28.99;20.62;100445.44;5057363;28;1078;-25
2023/01/28 12:41:14;;;;;;;;;;;;;;;29.04;20.58;100448.38;5057631;28;1024;-26
2023/01/28 12:43:47;;;;;;;;;;;;;;;29.07;20.66;100447.13;5049237;28;1192;-26
2023/01/28 12:46:35;;;;;;;;;;;;;;;29.09;20.57;100445.03;5059164;28;1091;-28
2023/01/28 12:49:05;;;;;;;;;;;;;;;29.13;20.73;100456.31;5059348;28;1120;-28
2023/01/28 12:51:36;;;;;;;;;;;;;;;27.96;21.76;100453.13;5077032;28;1110;-25
2023/01/28 12:54:04;;;;;;;;;;;;;;;27.15;23.08;100461.28;5062038;28;1906;-25
2023/01/28 12:56:34;;;;;;;;;;;;;;;29.56;20.41;100464.09;5057445;28;1061;-25
2023/01/28 12:59:01;;;;;;;;;;;;;;;30.20;19.60;100468.31;5072178;28;1141;-26
2023/01/28 13:01:33;;;;;;;;;;;;;;;30.06;19.55;100470.19;5076670;28;1155;-26
2023/01/28 13:04:17;;;;;;;;;;;;;;;29.45;20.35;100478.25;5076647;28;1165;-27
2023/01/28 13:06:43;;;;;;;;;;;;;;;28.81;21.04;100483.88;5046663;28;1092;-26
2023/01/28 13:09:16;;;;;;;;;;;;;;;28.76;21.39;100480.91;5075955;28;1110;-26
2023/01/28 13:11:41;;;;;;;;;;;;;;;28.88;21.36;100497.44;5076135;28;1424;-27
2023/01/28 13:14:07;;;;;;;;;;;;;;;28.99;21.01;100496.03;5069907;28;1953;-29
2023/01/28 13:16:33;;;;;;;;;;;;;;;29.16;21.05;100493.81;5039267;28;1107;-28
2023/01/28 13:19:05;;;;;;;;;;;;;;;29.27;20.88;100497.78;5045710;28;1216;-26
2023/01/28 13:21:31;;;;;;;;;;;;;;;29.38;20.59;100509.94;5075928;28;1182;-26